createdAt,value
2023-01-09T00:00:53.414Z,100.00
2023-01-09T00:03:20.043Z,100.00
2023-01-09T00:05:46.670Z,100.00
2023-01-09T00:08:13.088Z,100.00
2023-01-09T00:10:39.845Z,100.00
2023-01-09T00:13:06.390Z,100.00
2023-01-09T00:15:34.149Z,100.00
2023-01-09T00:18:00.585Z,100.00
2023-01-09T00:20:27.039Z,100.00
2023-01-09T00:22:53.499Z,100.00
2023-01-09T00:25:19.924Z,100.00
2023-01-09T00:27:46.457Z,100.00
2023-01-09T00:30:13.044Z,100.00
2023-01-09T00:32:40.646Z,100.00
2023-01-09T00:35:12.007Z,100.00
2023-01-09T00:37:38.650Z,100.00
2023-01-09T00:40:05.749Z,100.00
2023-01-09T00:42:33.826Z,100.00
2023-01-09T00:45:04.632Z,100.00
2023-01-09T00:47:41.817Z,100.00
2023-01-09T00:50:14.610Z,100.00
2023-01-09T00:52:41.969Z,100.00
2023-01-09T00:55:09.636Z,100.00
2023-01-09T00:57:36.477Z,100.00
2023-01-09T01:00:05.038Z,100.00
2023-01-09T01:02:31.677Z,100.00
2023-01-09T01:04:58.273Z,100.00
2023-01-09T01:07:24.718Z,100.00
2023-01-09T01:09:51.293Z,100.00
2023-01-09T01:12:17.718Z,100.00
2023-01-09T01:14:44.413Z,100.00
2023-01-09T01:17:14.556Z,100.00
2023-01-09T01:19:41.080Z,100.00
2023-01-09T01:22:07.715Z,100.00
2023-01-09T01:24:34.344Z,100.00
2023-01-09T01:27:00.951Z,100.00
2023-01-09T01:29:27.961Z,100.00
2023-01-09T01:31:54.375Z,100.00
2023-01-09T01:34:20.829Z,100.00
2023-01-09T01:36:47.376Z,100.00
2023-01-09T01:39:13.923Z,100.00
2023-01-09T01:41:40.463Z,100.00
2023-01-09T01:44:45.704Z,100.00
2023-01-09T01:47:13.542Z,100.00
2023-01-09T01:49:40.044Z,100.00
2023-01-09T01:52:07.433Z,100.00
2023-01-09T01:54:34.326Z,100.00
2023-01-09T01:57:04.578Z,100.00
2023-01-09T01:59:40.670Z,100.00
2023-01-09T02:02:09.190Z,100.00
2023-01-09T02:04:38.621Z,100.00
2023-01-09T02:07:09.702Z,100.00
2023-01-09T02:09:38.959Z,100.00
2023-01-09T02:12:28.041Z,100.00
2023-01-09T02:15:01.537Z,100.00
2023-01-09T02:17:43.267Z,100.00
2023-01-09T02:20:28.114Z,100.00
2023-01-09T02:23:34.891Z,100.00
2023-01-09T02:26:28.915Z,100.00
2023-01-09T02:29:29.432Z,100.00
2023-01-09T02:32:20.003Z,100.00
2023-01-09T02:35:05.747Z,100.00
2023-01-09T02:37:57.234Z,100.00
2023-01-09T02:40:33.833Z,100.00
2023-01-09T02:43:01.662Z,100.00
2023-01-09T02:45:28.250Z,100.00
2023-01-09T02:47:54.866Z,100.00
2023-01-09T02:50:27.859Z,100.00
2023-01-09T02:53:13.444Z,100.00
2023-01-09T02:56:12.753Z,100.00
2023-01-09T02:58:53.868Z,100.00
2023-01-09T03:01:45.707Z,100.00
2023-01-09T03:04:24.355Z,100.00
2023-01-09T03:07:17.006Z,100.00
2023-01-09T03:09:48.492Z,100.00
2023-01-09T03:12:20.358Z,100.00
2023-01-09T03:14:48.917Z,100.00
2023-01-09T03:17:22.946Z,100.00
2023-01-09T03:19:52.518Z,100.00
2023-01-09T03:22:19.018Z,100.00
2023-01-09T03:24:45.551Z,100.00
2023-01-09T03:27:12.732Z,100.00
2023-01-09T03:29:39.432Z,100.00
2023-01-09T03:32:06.497Z,100.00
2023-01-09T03:34:32.909Z,100.00
2023-01-09T03:36:59.314Z,100.00
2023-01-09T03:39:25.748Z,100.00
2023-01-09T03:41:52.204Z,100.00
2023-01-09T03:44:18.641Z,100.00
2023-01-09T03:46:45.132Z,100.00
2023-01-09T03:49:11.789Z,100.00
2023-01-09T03:51:38.311Z,100.00
2023-01-09T03:54:04.762Z,100.00
2023-01-09T03:56:31.389Z,100.00
2023-01-09T03:58:57.814Z,100.00
2023-01-09T04:01:24.441Z,100.00
2023-01-09T04:03:51.158Z,100.00
2023-01-09T04:06:17.574Z,100.00
2023-01-09T04:08:44.089Z,100.00
2023-01-09T04:11:10.659Z,100.00
2023-01-09T04:13:37.170Z,100.00
2023-01-09T04:16:04.095Z,100.00
2023-01-09T04:18:30.718Z,100.00
2023-01-09T04:20:57.402Z,100.00
2023-01-09T04:23:23.785Z,100.00
2023-01-09T04:25:50.224Z,100.00
2023-01-09T04:28:16.645Z,100.00
2023-01-09T04:30:43.076Z,100.00
2023-01-09T04:33:09.792Z,100.00
2023-01-09T04:35:36.437Z,100.00
2023-01-09T04:38:02.974Z,100.00
2023-01-09T04:40:29.523Z,100.00
2023-01-09T04:42:56.097Z,100.00
2023-01-09T04:45:22.600Z,100.00
2023-01-09T04:47:49.136Z,100.00
2023-01-09T04:50:16.090Z,100.00
2023-01-09T04:52:42.838Z,100.00
2023-01-09T04:55:09.710Z,100.00
2023-01-09T04:57:36.722Z,100.00
2023-01-09T05:00:04.725Z,100.00
2023-01-09T05:02:31.236Z,100.00
2023-01-09T05:04:57.687Z,100.00
2023-01-09T05:07:24.247Z,100.00
2023-01-09T05:09:50.705Z,100.00
2023-01-09T05:12:17.216Z,100.00
2023-01-09T05:14:43.765Z,100.00
2023-01-09T05:17:10.272Z,100.00
2023-01-09T05:19:36.708Z,100.00
2023-01-09T05:22:03.482Z,100.00
2023-01-09T05:24:30.027Z,100.00
2023-01-09T05:26:56.501Z,100.00
2023-01-09T05:29:22.983Z,100.00
2023-01-09T05:31:49.439Z,100.00
2023-01-09T05:34:15.978Z,100.00
2023-01-09T05:36:42.382Z,100.00
2023-01-09T05:39:09.055Z,100.00
2023-01-09T05:41:35.458Z,100.00
2023-01-09T05:44:01.937Z,100.00
2023-01-09T05:46:28.491Z,100.00
2023-01-09T05:48:54.920Z,100.00
2023-01-09T05:51:21.366Z,100.00
2023-01-09T05:53:47.914Z,100.00
2023-01-09T05:56:14.943Z,100.00
2023-01-09T05:58:41.566Z,100.00
2023-01-09T06:01:08.318Z,100.00
2023-01-09T06:03:34.828Z,100.00
2023-01-09T06:06:01.287Z,100.00
2023-01-09T06:08:27.762Z,100.00
2023-01-09T06:10:54.302Z,100.00
2023-01-09T06:13:20.735Z,100.00
2023-01-09T06:15:48.463Z,100.00
2023-01-09T06:18:15.564Z,100.00
2023-01-09T06:20:42.060Z,100.00
2023-01-09T06:23:08.489Z,100.00
2023-01-09T06:25:34.973Z,100.00
2023-01-09T06:28:01.514Z,100.00
2023-01-09T06:30:28.046Z,100.00
2023-01-09T06:32:54.690Z,100.00
2023-01-09T06:35:21.124Z,100.00
2023-01-09T06:37:48.736Z,100.00
2023-01-09T06:40:16.257Z,100.00
2023-01-09T06:42:44.644Z,100.00
2023-01-09T06:45:12.101Z,100.00
2023-01-09T06:47:38.729Z,100.00
2023-01-09T06:50:06.156Z,100.00
2023-01-09T06:52:32.759Z,100.00
2023-01-09T06:54:59.279Z,100.00
2023-01-09T06:57:25.700Z,100.00
2023-01-09T06:59:52.149Z,100.00
2023-01-09T07:02:20.539Z,100.00
2023-01-09T07:04:47.397Z,100.00
2023-01-09T07:07:16.278Z,100.00
2023-01-09T07:09:42.816Z,100.00
2023-01-09T07:12:09.200Z,100.00
2023-01-09T07:14:35.758Z,100.00
2023-01-09T07:17:02.203Z,100.00
2023-01-09T07:19:28.581Z,100.00
2023-01-09T07:21:55.102Z,100.00
2023-01-09T07:24:21.515Z,100.00
2023-01-09T07:26:47.938Z,100.00
2023-01-09T07:29:14.520Z,100.00
2023-01-09T07:31:41.021Z,100.00
2023-01-09T07:34:07.581Z,100.00
2023-01-09T07:36:34.245Z,100.00
2023-01-09T07:39:00.785Z,100.00
2023-01-09T07:41:27.228Z,100.00
2023-01-09T07:43:53.876Z,100.00
2023-01-09T07:46:20.323Z,100.00
2023-01-09T07:48:46.898Z,100.00
2023-01-09T07:51:13.589Z,100.00
2023-01-09T07:53:40.337Z,100.00
2023-01-09T07:56:07.076Z,100.00
2023-01-09T07:58:33.501Z,100.00
2023-01-09T08:01:00.106Z,100.00
2023-01-09T08:03:26.857Z,100.00
2023-01-09T08:05:53.567Z,100.00
2023-01-09T08:08:20.083Z,100.00
2023-01-09T08:10:46.715Z,100.00
2023-01-09T08:13:13.157Z,100.00
2023-01-09T08:15:39.771Z,100.00
2023-01-09T08:18:06.238Z,100.00
2023-01-09T08:20:32.688Z,100.00
2023-01-09T08:22:59.134Z,100.00
2023-01-09T08:25:25.680Z,100.00
2023-01-09T08:27:52.165Z,100.00
2023-01-09T08:30:19.380Z,100.00
2023-01-09T08:32:54.081Z,100.00
2023-01-09T08:35:21.363Z,100.00
2023-01-09T08:37:48.663Z,100.00
2023-01-09T08:40:17.464Z,100.00
2023-01-09T08:42:44.358Z,100.00
2023-01-09T08:45:12.475Z,100.00
2023-01-09T08:47:39.241Z,100.00
2023-01-09T08:50:06.002Z,100.00
2023-01-09T08:52:32.528Z,100.00
2023-01-09T08:54:59.037Z,100.00
2023-01-09T08:57:25.472Z,100.00
2023-01-09T08:59:51.958Z,100.00
2023-01-09T09:02:18.511Z,100.00
2023-01-09T09:04:44.927Z,100.00
2023-01-09T09:07:11.368Z,100.00
2023-01-09T09:09:38.001Z,100.00
2023-01-09T09:12:05.049Z,100.00
2023-01-09T09:14:31.460Z,100.00
2023-01-09T09:16:58.070Z,100.00
2023-01-09T09:19:24.540Z,100.00
2023-01-09T09:21:51.015Z,100.00
2023-01-09T09:24:17.550Z,100.00
2023-01-09T09:26:44.748Z,100.00
2023-01-09T09:29:11.776Z,100.00
2023-01-09T09:31:39.045Z,99.94
2023-01-09T09:34:07.173Z,99.56
2023-01-09T09:36:34.121Z,99.60
2023-01-09T09:39:00.663Z,100.00
2023-01-09T09:42:17.176Z,98.73
2023-01-09T09:44:58.774Z,100.00
2023-01-09T09:47:43.895Z,99.29
2023-01-09T09:50:36.181Z,64.41
2023-01-09T09:53:13.284Z,64.37
2023-01-09T09:55:41.224Z,63.42
2023-01-09T09:58:18.732Z,63.68
2023-01-09T10:00:45.419Z,63.60
2023-01-09T10:03:33.470Z,62.87
2023-01-09T10:06:06.024Z,62.90
2023-01-09T10:08:54.362Z,63.02
2023-01-09T10:11:43.858Z,63.72
2023-01-09T10:14:23.375Z,63.78
2023-01-09T10:17:32.534Z,63.15
2023-01-09T10:20:28.978Z,63.41
2023-01-09T10:23:07.852Z,64.38
2023-01-09T10:25:46.141Z,64.09
2023-01-09T10:28:27.720Z,64.05
2023-01-09T10:31:38.803Z,63.52
2023-01-09T10:34:29.121Z,63.23
2023-01-09T10:37:33.123Z,64.23
2023-01-09T10:40:06.536Z,63.81
2023-01-09T10:42:40.819Z,63.44
2023-01-09T10:45:26.738Z,63.77
2023-01-09T10:48:11.615Z,64.51
2023-01-09T10:50:41.957Z,64.91
2023-01-09T10:53:20.752Z,65.39
2023-01-09T10:55:48.428Z,65.43
2023-01-09T10:58:18.051Z,65.36
2023-01-09T11:00:46.443Z,65.23
2023-01-09T11:03:15.424Z,65.10
2023-01-09T11:05:42.856Z,65.19
2023-01-09T11:08:09.323Z,65.19
2023-01-09T11:10:49.680Z,65.35
2023-01-09T11:13:26.566Z,65.26
2023-01-09T11:16:10.787Z,65.27
2023-01-09T11:18:40.901Z,64.51
2023-01-09T11:21:28.373Z,64.37
2023-01-09T11:23:56.348Z,64.35
2023-01-09T11:26:27.818Z,64.57
2023-01-09T11:29:17.464Z,65.07
2023-01-09T11:31:52.516Z,64.67
2023-01-09T11:34:22.553Z,64.58
2023-01-09T11:36:51.964Z,64.45
2023-01-09T11:39:33.869Z,64.25
2023-01-09T11:42:06.412Z,63.80
2023-01-09T11:44:33.524Z,63.78
2023-01-09T11:47:00.089Z,63.22
2023-01-09T11:49:31.411Z,63.90
2023-01-09T11:52:17.597Z,64.20
2023-01-09T11:54:59.171Z,64.14
2023-01-09T11:58:10.238Z,63.98
2023-01-09T12:01:03.217Z,63.13
2023-01-09T12:03:41.021Z,63.23
2023-01-09T12:06:29.574Z,62.96
2023-01-09T12:09:01.252Z,62.50
2023-01-09T12:11:32.116Z,62.44
2023-01-09T12:14:19.421Z,62.53
2023-01-09T12:16:51.673Z,63.04
2023-01-09T12:19:27.204Z,62.61
2023-01-09T12:22:07.985Z,62.92
2023-01-09T12:24:40.593Z,63.20
2023-01-09T12:27:31.605Z,63.29
2023-01-09T12:30:38.322Z,63.09
2023-01-09T12:33:14.002Z,63.19
2023-01-09T12:35:46.747Z,63.40
2023-01-09T12:38:37.966Z,63.63
2023-01-09T12:41:16.468Z,64.11
2023-01-09T12:44:06.253Z,64.43
2023-01-09T12:46:57.001Z,64.57
2023-01-09T12:49:39.540Z,64.60
2023-01-09T12:52:12.781Z,64.87
2023-01-09T12:54:42.280Z,65.17
2023-01-09T12:57:23.829Z,65.27
2023-01-09T13:00:01.260Z,65.47
2023-01-09T13:02:36.853Z,65.46
2023-01-09T13:05:13.725Z,65.61
2023-01-09T13:08:05.246Z,65.64
2023-01-09T13:10:39.184Z,65.54
2023-01-09T13:13:20.535Z,65.70
2023-01-09T13:16:04.301Z,65.58
2023-01-09T13:18:45.667Z,65.73
2023-01-09T13:21:13.528Z,65.98
2023-01-09T13:24:28.616Z,66.15
2023-01-09T13:27:06.821Z,66.32
2023-01-09T13:29:38.384Z,66.52
2023-01-09T13:32:34.214Z,66.58
2023-01-09T13:35:00.857Z,66.89
2023-01-09T13:37:30.444Z,67.03
2023-01-09T13:40:02.773Z,67.05
2023-01-09T13:42:29.593Z,67.26
2023-01-09T13:45:08.926Z,67.49
2023-01-09T13:47:35.465Z,67.56
2023-01-09T13:50:22.517Z,67.81
2023-01-09T13:52:49.876Z,67.89
2023-01-09T13:55:16.513Z,68.09
2023-01-09T13:58:05.114Z,68.26
2023-01-09T14:00:34.772Z,68.30
2023-01-09T14:03:25.529Z,68.21
2023-01-09T14:05:52.008Z,68.30
2023-01-09T14:08:20.989Z,68.23
2023-01-09T14:10:51.979Z,68.23
2023-01-09T14:13:25.423Z,68.10
2023-01-09T14:16:01.626Z,68.17
2023-01-09T14:18:50.485Z,68.12
2023-01-09T14:21:17.665Z,68.11
2023-01-09T14:24:04.402Z,68.31
2023-01-09T14:26:43.378Z,68.44
2023-01-09T14:29:28.674Z,68.56
2023-01-09T14:32:21.249Z,68.92
2023-01-09T14:35:07.004Z,69.29
2023-01-09T14:37:37.110Z,69.46
2023-01-09T14:40:08.282Z,69.83
2023-01-09T14:42:40.348Z,70.12
2023-01-09T14:45:14.906Z,70.09
2023-01-09T14:48:11.765Z,70.77
2023-01-09T14:50:44.927Z,71.07
2023-01-09T14:53:17.097Z,71.17
2023-01-09T14:56:01.229Z,71.73
2023-01-09T14:58:28.734Z,71.88
2023-01-09T15:01:05.969Z,72.72
2023-01-09T15:03:40.844Z,72.53
2023-01-09T15:06:15.581Z,72.62
2023-01-09T15:08:45.275Z,72.70
2023-01-09T15:11:13.464Z,72.90
2023-01-09T15:13:46.858Z,73.51
2023-01-09T15:16:20.089Z,73.54
2023-01-09T15:18:52.121Z,73.55
2023-01-09T15:21:23.147Z,74.11
2023-01-09T15:23:50.291Z,74.48
2023-01-09T15:26:30.080Z,75.01
2023-01-09T15:29:16.236Z,75.04
2023-01-09T15:31:45.063Z,75.02
2023-01-09T15:34:20.061Z,75.16
2023-01-09T15:36:46.713Z,75.06
2023-01-09T15:39:28.116Z,74.91
2023-01-09T15:42:22.414Z,75.08
2023-01-09T15:44:51.517Z,75.04
2023-01-09T15:47:24.102Z,75.20
2023-01-09T15:49:51.150Z,75.19
2023-01-09T15:52:18.858Z,75.71
2023-01-09T15:54:46.272Z,75.65
2023-01-09T15:57:25.044Z,75.54
2023-01-09T15:59:56.688Z,75.60
2023-01-09T16:02:24.341Z,75.57
2023-01-09T16:04:54.953Z,75.39
2023-01-09T16:07:21.496Z,75.30
2023-01-09T16:09:49.972Z,75.37
2023-01-09T16:12:22.505Z,75.35
2023-01-09T16:14:56.340Z,75.44
2023-01-09T16:17:23.308Z,75.64
2023-01-09T16:19:55.888Z,75.61
2023-01-09T16:22:33.896Z,75.60
2023-01-09T16:25:22.324Z,75.56
2023-01-09T16:28:27.471Z,75.45
2023-01-09T16:30:58.049Z,75.45
2023-01-09T16:33:27.149Z,75.47
2023-01-09T16:35:54.076Z,75.39
2023-01-09T16:38:21.637Z,75.35
2023-01-09T16:41:13.102Z,75.42
2023-01-09T16:43:39.505Z,75.48
2023-01-09T16:46:05.994Z,75.45
2023-01-09T16:48:33.721Z,75.67
2023-01-09T16:51:00.393Z,75.83
2023-01-09T16:53:26.891Z,75.89
2023-01-09T16:55:54.470Z,75.97
2023-01-09T16:58:29.303Z,75.98
2023-01-09T17:00:56.904Z,76.04
2023-01-09T17:03:23.781Z,76.05
2023-01-09T17:05:53.945Z,76.23
2023-01-09T17:08:26.910Z,76.13
2023-01-09T17:10:55.396Z,76.26
2023-01-09T17:13:22.702Z,76.26
2023-01-09T17:15:49.228Z,76.27
2023-01-09T17:18:17.904Z,76.37
2023-01-09T17:20:47.996Z,76.51
2023-01-09T17:23:14.766Z,76.55
2023-01-09T17:25:42.300Z,76.62
2023-01-09T17:28:18.176Z,76.90
2023-01-09T17:30:44.717Z,77.13
2023-01-09T17:33:18.860Z,76.93
2023-01-09T17:35:45.911Z,77.32
2023-01-09T17:38:16.218Z,77.58
2023-01-09T17:40:43.914Z,77.57
2023-01-09T17:43:11.317Z,77.67
2023-01-09T17:45:42.030Z,77.86
2023-01-09T17:48:15.434Z,77.90
2023-01-09T17:50:42.429Z,77.96
2023-01-09T17:53:08.880Z,78.09
2023-01-09T17:55:35.815Z,78.26
2023-01-09T17:58:02.458Z,78.37
2023-01-09T18:00:32.478Z,78.58
2023-01-09T18:02:58.900Z,78.73
2023-01-09T18:05:26.284Z,78.68
2023-01-09T18:07:52.819Z,78.63
2023-01-09T18:10:22.825Z,78.74
2023-01-09T18:12:51.227Z,78.97
2023-01-09T18:15:18.157Z,79.07
2023-01-09T18:17:44.664Z,79.16
2023-01-09T18:20:11.773Z,79.08
2023-01-09T18:22:38.150Z,79.60
2023-01-09T18:25:05.380Z,79.83
2023-01-09T18:27:32.222Z,79.86
2023-01-09T18:29:58.609Z,80.14
2023-01-09T18:32:25.080Z,80.39
2023-01-09T18:34:51.620Z,80.56
2023-01-09T18:37:18.235Z,80.31
2023-01-09T18:39:45.005Z,80.41
2023-01-09T18:42:11.462Z,80.34
2023-01-09T18:44:37.907Z,80.37
2023-01-09T18:47:04.519Z,80.64
2023-01-09T18:49:31.065Z,81.28
2023-01-09T18:51:57.461Z,81.35
2023-01-09T18:54:23.932Z,81.78
2023-01-09T18:56:50.373Z,81.95
2023-01-09T18:59:16.772Z,82.12
2023-01-09T19:01:43.446Z,82.14
2023-01-09T19:04:10.049Z,82.38
2023-01-09T19:06:36.640Z,82.84
2023-01-09T19:09:03.690Z,82.76
2023-01-09T19:11:30.226Z,82.70
2023-01-09T19:13:56.662Z,82.73
2023-01-09T19:16:23.145Z,82.80
2023-01-09T19:18:49.735Z,82.77
2023-01-09T19:21:18.769Z,82.80
2023-01-09T19:23:47.029Z,82.69
2023-01-09T19:26:24.502Z,82.75
2023-01-09T19:28:51.881Z,83.03
2023-01-09T19:31:18.723Z,82.97
2023-01-09T19:33:45.465Z,82.95
2023-01-09T19:36:12.239Z,82.71
2023-01-09T19:38:38.643Z,83.17
2023-01-09T19:41:09.597Z,83.72
2023-01-09T19:43:36.733Z,84.90
2023-01-09T19:46:07.398Z,85.32
2023-01-09T19:48:34.135Z,85.80
2023-01-09T19:51:06.808Z,86.34
2023-01-09T19:53:35.027Z,86.57
2023-01-09T19:56:12.657Z,86.50
2023-01-09T19:58:40.065Z,86.77
2023-01-09T20:01:14.916Z,87.20
2023-01-09T20:03:43.475Z,87.28
2023-01-09T20:06:12.399Z,87.52
2023-01-09T20:08:39.083Z,88.16
2023-01-09T20:11:05.626Z,88.74
2023-01-09T20:13:33.553Z,89.42
2023-01-09T20:16:01.130Z,89.67
2023-01-09T20:18:32.680Z,89.81
2023-01-09T20:20:59.719Z,89.98
2023-01-09T20:23:28.093Z,89.98
2023-01-09T20:25:56.099Z,90.04
2023-01-09T20:28:23.922Z,90.25
2023-01-09T20:30:51.913Z,90.22
2023-01-09T20:33:20.371Z,90.17
2023-01-09T20:35:47.845Z,90.21
2023-01-09T20:38:14.706Z,90.34
2023-01-09T20:40:41.322Z,90.53
2023-01-09T20:43:07.731Z,90.41
2023-01-09T20:45:34.660Z,90.19
2023-01-09T20:48:01.375Z,90.35
2023-01-09T20:50:28.017Z,90.38
2023-01-09T20:52:54.661Z,90.26
2023-01-09T20:55:21.100Z,90.36
2023-01-09T20:57:47.504Z,90.34
2023-01-09T21:00:14.801Z,90.65
2023-01-09T21:02:41.336Z,90.89
2023-01-09T21:05:08.433Z,90.80
2023-01-09T21:07:34.997Z,90.78
2023-01-09T21:10:01.777Z,90.79
2023-01-09T21:12:28.210Z,91.00
2023-01-09T21:14:55.262Z,91.33
2023-01-09T21:17:21.924Z,91.30
2023-01-09T21:19:49.054Z,91.39
2023-01-09T21:22:18.463Z,91.43
2023-01-09T21:24:48.806Z,91.50
2023-01-09T21:27:15.518Z,91.70
2023-01-09T21:29:41.960Z,91.84
2023-01-09T21:32:08.718Z,91.96
2023-01-09T21:34:35.153Z,92.03
2023-01-09T21:37:01.955Z,92.02
2023-01-09T21:39:28.727Z,92.10
2023-01-09T21:41:55.424Z,92.54
2023-01-09T21:44:21.938Z,92.49
2023-01-09T21:46:48.575Z,92.55
2023-01-09T21:49:15.115Z,92.63
2023-01-09T21:51:42.175Z,92.71
2023-01-09T21:54:09.222Z,92.88
2023-01-09T21:56:35.839Z,93.38
2023-01-09T21:59:03.222Z,93.38
2023-01-09T22:01:29.841Z,93.46
2023-01-09T22:03:57.203Z,93.28
2023-01-09T22:06:24.337Z,93.42
2023-01-09T22:08:51.121Z,93.73
2023-01-09T22:11:17.633Z,94.02
2023-01-09T22:13:49.551Z,94.37
2023-01-09T22:16:17.752Z,94.74
2023-01-09T22:18:44.547Z,94.98
2023-01-09T22:21:11.353Z,95.45
2023-01-09T22:23:37.975Z,95.96
2023-01-09T22:26:13.046Z,96.32
2023-01-09T22:28:40.407Z,96.88
2023-01-09T22:31:11.374Z,97.22
2023-01-09T22:33:37.975Z,97.03
2023-01-09T22:36:06.910Z,97.40
2023-01-09T22:39:17.812Z,98.10
2023-01-09T22:42:28.604Z,98.98
2023-01-09T22:45:39.833Z,99.60
2023-01-09T22:48:50.380Z,99.92
2023-01-09T22:52:01.873Z,100.00
2023-01-09T22:55:12.651Z,100.00
2023-01-09T22:58:23.721Z,100.00
2023-01-09T23:00:50.159Z,100.00
2023-01-09T23:03:16.575Z,100.00
2023-01-09T23:05:43.137Z,100.00
2023-01-09T23:08:09.576Z,100.00
2023-01-09T23:10:36.202Z,100.00
2023-01-09T23:13:02.768Z,100.00
2023-01-09T23:15:29.159Z,100.00
2023-01-09T23:17:55.648Z,100.00
2023-01-09T23:20:22.181Z,100.00
2023-01-09T23:22:48.720Z,100.00
2023-01-09T23:25:15.504Z,100.00
2023-01-09T23:27:42.823Z,100.00
2023-01-09T23:30:10.279Z,100.00
2023-01-09T23:32:36.829Z,100.00
2023-01-09T23:35:03.692Z,100.00
2023-01-09T23:37:30.182Z,100.00
2023-01-09T23:39:56.625Z,100.00
2023-01-09T23:42:23.242Z,100.00
2023-01-09T23:44:49.843Z,100.00
2023-01-09T23:47:16.382Z,100.00
2023-01-09T23:49:42.801Z,100.00
2023-01-09T23:52:09.362Z,100.00
2023-01-09T23:54:35.811Z,100.00
2023-01-09T23:57:02.337Z,100.00
2023-01-09T23:59:28.886Z,100.00
